메인 페이지
METAR-TAF:

METAR-TAF

공항 :

Laconia Municipal Airport

Laconia, 뉴햄프셔, 미국

위도: 43-34N, 경도: 071-25W, 고도: 166m

현재 날씨관측

예보는 52분 전, 18:12시(UTC)에 발표되었습니다.
서남서6kt
온도 7°C
습도 93%
기압 1007 hPa
시정: 16.1km
고도 1900ft 상공 구름 많음
고도 4900ft 상공 흐림
약한비

METAR: KLCI 231812Z AUTO 25006KT 10SM -RA BKN019 OVC049 07/06 A2974 RMK AO2 P0000

시각: 14:04 (19:04 UTC)


TAF: 누락

4,000개 이상의 공항 관측 자료 및 예보 (METAR 및 TAF 보고).

지도상에서 검색 가능한 기상관측소가 노란 점과 빨간 점으로 표시되어 있습니다.

기상관측소 명을 보려면 표시 위로 마우스를 이동하세요.

날씨 관측과 예보를 보려면 클릭하세요.

지도 변경 : 확대하려면 엑스 표시가 있는 녹색 버튼, 축소하려면 빼기 표시가 있는 녹색 버튼, 다음 페이지의 지도를 보려면 녹색 화살표를 클릭하세요.


METAR-TAF: